Time;durP1;ratioP1;P1;durP2;ratioP2;P2;SDS_P1;SDS_P2;PMS_P1;PMS_P2;Temp;Humidity;BMP_temperature;BMP_pressure;BME280_temperature;BME280_humidity;BME280_pressure;Samples;Min_cycle;Max_cycle;Signal;HPM_P1;HPM_P2
2023/05/30 00:01:14;;;;;;;8.30;2.85;;;;;;;15.33;100.00;98791.31;5159437;27;20459;-51
2023/05/30 00:03:43;;;;;;;7.45;2.83;;;;;;;14.96;100.00;98762.38;5159076;27;20111;-55
2023/05/30 00:06:09;;;;;;;15.80;3.17;;;;;;;14.96;100.00;98762.38;5159486;27;20315;-50
2023/05/30 00:08:35;;;;;;;6.20;2.97;;;;;;;14.99;100.00;98778.13;5159064;27;20082;-52
2023/05/30 00:11:01;;;;;;;4.20;2.42;;;;;;;14.94;100.00;98773.03;5159470;27;20052;-51
2023/05/30 00:13:32;;;;;;;9.90;2.63;;;;;;;14.88;100.00;98749.03;5158918;27;20046;-56
2023/05/30 00:15:59;;;;;;;5.70;2.70;;;;;;;14.78;100.00;98734.88;5159392;27;20149;-51
2023/05/30 00:18:25;;;;;;;11.02;3.22;;;;;;;14.69;100.00;98720.75;5159092;27;20145;-57
2023/05/30 00:20:51;;;;;;;6.80;2.35;;;;;;;14.66;100.00;98718.00;5158171;27;20047;-53
2023/05/30 00:23:17;;;;;;;5.00;3.08;;;;;;;14.55;100.00;98707.03;5159154;27;20118;-58
2023/05/30 00:25:45;;;;;;;8.05;3.15;;;;;;;14.45;100.00;98700.34;5159131;27;20061;-54
2023/05/30 00:28:11;;;;;;;12.25;3.20;;;;;;;14.41;100.00;98701.56;5159091;27;20092;-51
2023/05/30 00:30:37;;;;;;;7.65;2.88;;;;;;;14.34;100.00;98694.13;5158820;27;20059;-51
2023/05/30 00:33:03;;;;;;;9.57;2.80;;;;;;;14.26;100.00;98681.53;5159130;27;20134;-56
2023/05/30 00:35:29;;;;;;;9.07;2.67;;;;;;;14.13;100.00;98683.97;5158686;27;20133;-54
2023/05/30 00:37:55;;;;;;;7.15;3.00;;;;;;;14.10;100.00;98682.03;5158959;27;20142;-56
2023/05/30 00:40:21;;;;;;;12.85;3.53;;;;;;;14.03;100.00;98651.75;5158518;27;20407;-58
2023/05/30 00:42:47;;;;;;;7.70;2.83;;;;;;;13.97;100.00;98650.56;5158982;27;20259;-58
2023/05/30 00:45:13;;;;;;;5.80;2.83;;;;;;;13.99;100.00;98661.97;5158460;27;20078;-57
2023/05/30 00:47:40;;;;;;;8.20;2.90;;;;;;;13.91;100.00;98666.72;5158644;27;20082;-54
2023/05/30 00:50:08;;;;;;;4.20;2.50;;;;;;;13.93;100.00;98672.63;5158594;27;20054;-54
2023/05/30 00:52:34;;;;;;;4.88;2.97;;;;;;;13.81;100.00;98640.00;5158500;27;20057;-59
2023/05/30 00:55:02;;;;;;;7.93;2.42;;;;;;;13.85;100.00;98649.03;5158466;27;20050;-58
2023/05/30 00:57:29;;;;;;;4.60;2.63;;;;;;;13.86;100.00;98631.31;5158370;27;20146;-54
2023/05/30 00:59:57;;;;;;;6.13;2.70;;;;;;;13.83;100.00;98634.88;5158666;27;20137;-57
2023/05/30 01:02:23;;;;;;;13.38;2.78;;;;;;;13.81;100.00;98618.75;5158351;27;20106;-57
2023/05/30 01:04:49;;;;;;;5.00;2.83;;;;;;;13.75;100.00;98625.84;5158645;27;20043;-57
2023/05/30 01:07:16;;;;;;;3.97;2.30;;;;;;;13.70;100.00;98625.50;5158023;27;20102;-53
2023/05/30 01:09:42;;;;;;;8.95;3.00;;;;;;;13.63;100.00;98634.56;5158576;27;20057;-52
2023/05/30 01:12:16;;;;;;;5.82;2.70;;;;;;;13.50;100.00;98617.69;5158059;27;20047;-55
2023/05/30 01:14:45;;;;;;;;;;;;;;;13.38;100.00;98602.34;5158504;27;20057;-58
2023/05/30 01:17:18;;;;;;;7.95;2.63;;;;;;;13.33;100.00;98594.50;5158241;27;19929;-50
2023/05/30 01:19:59;;;;;;;5.28;2.75;;;;;;;13.30;100.00;98591.78;5158044;27;20420;-56
2023/05/30 01:22:37;;;;;;;5.90;2.70;;;;;;;13.33;100.00;98604.75;5158179;27;20053;-58
2023/05/30 01:25:21;;;;;;;5.03;2.47;;;;;;;13.25;100.00;98612.22;5158047;27;20129;-54
2023/05/30 01:28:06;;;;;;;7.43;2.42;;;;;;;13.24;100.00;98609.84;5157904;27;20069;-58
2023/05/30 01:30:36;;;;;;;5.50;2.33;;;;;;;13.22;100.00;98618.47;5158119;27;20055;-53
2023/05/30 01:33:04;;;;;;;5.40;2.38;;;;;;;13.11;100.00;98614.97;5160564;27;20050;-54
2023/05/30 01:35:30;;;;;;;5.93;2.53;;;;;;;13.08;100.00;98618.50;5161843;27;20202;-51
2023/05/30 01:37:56;;;;;;;4.80;2.83;;;;;;;13.06;100.00;98612.59;5161402;27;20141;-58
2023/05/30 01:40:25;;;;;;;9.25;2.40;;;;;;;13.09;100.00;98607.09;5161811;27;20138;-58
2023/05/30 01:42:57;;;;;;;7.53;3.53;;;;;;;13.10;100.00;98605.94;5161498;27;20142;-50
2023/05/30 01:45:36;;;;;;;5.18;2.53;;;;;;;13.08;100.00;98611.03;5161900;27;20067;-52
2023/05/30 01:48:11;;;;;;;7.10;2.80;;;;;;;13.06;100.00;98615.34;5161326;27;20055;-57
2023/05/30 01:50:41;;;;;;;5.50;2.35;;;;;;;13.02;100.00;98600.81;5161231;27;20438;-56
2023/05/30 01:53:11;;;;;;;5.05;2.60;;;;;;;12.91;100.00;98576.84;5161580;27;20058;-58
2023/05/30 01:55:41;;;;;;;4.65;2.35;;;;;;;12.99;100.00;98585.09;5161373;27;20147;-56
2023/05/30 01:58:08;;;;;;;8.55;2.38;;;;;;;12.93;100.00;98579.22;5161556;27;20239;-55
2023/05/30 02:00:35;;;;;;;10.52;2.95;;;;;;;12.90;100.00;98585.50;5161226;27;20106;-56
2023/05/30 02:03:01;;;;;;;6.32;2.63;;;;;;;12.74;100.00;98557.63;5161388;27;20046;-55
2023/05/30 02:05:27;;;;;;;3.55;2.40;;;;;;;12.77;100.00;98545.84;5161043;27;20141;-57
2023/05/30 02:07:53;;;;;;;12.02;2.83;;;;;;;12.78;100.00;98561.94;5161483;27;20097;-58
2023/05/30 02:10:19;;;;;;;14.07;3.50;;;;;;;12.88;100.00;98563.88;5160916;27;20416;-57
2023/05/30 02:12:45;;;;;;;7.15;2.75;;;;;;;12.81;100.00;98569.41;5161416;27;20047;-50
2023/05/30 02:15:11;;;;;;;6.80;2.70;;;;;;;12.82;100.00;98561.94;5161268;27;20096;-51
2023/05/30 02:17:38;;;;;;;4.28;2.60;;;;;;;12.80;100.00;98561.56;5160710;27;20047;-58
2023/05/30 02:20:05;;;;;;;6.10;2.90;;;;;;;12.86;100.00;98551.69;5160911;27;20066;-57
2023/05/30 02:22:31;;;;;;;10.00;3.00;;;;;;;13.00;100.00;98570.19;5160924;27;20046;-51
2023/05/30 02:24:57;;;;;;;8.25;2.75;;;;;;;13.10;100.00;98570.16;5160890;27;20123;-56
2023/05/30 02:27:24;;;;;;;7.45;2.70;;;;;;;13.22;100.00;98570.91;5160775;27;20050;-57
2023/05/30 02:29:50;;;;;;;9.52;2.58;;;;;;;13.30;100.00;98569.75;5161065;27;20061;-51
2023/05/30 02:32:16;;;;;;;10.25;2.60;;;;;;;13.35;100.00;98569.34;5160583;27;20054;-51
2023/05/30 02:34:42;;;;;;;6.70;2.90;;;;;;;13.73;100.00;98577.84;5161010;27;20141;-54
2023/05/30 02:37:08;;;;;;;9.27;2.90;;;;;;;13.97;100.00;98610.03;5160424;27;20076;-51
2023/05/30 02:39:35;;;;;;;8.43;3.00;;;;;;;14.31;100.00;98639.78;5160984;27;20137;-52
2023/05/30 02:42:01;;;;;;;9.63;3.38;;;;;;;14.62;100.00;98671.13;5160865;27;20089;-56
2023/05/30 02:44:27;;;;;;;6.75;2.70;;;;;;;14.86;100.00;98697.00;5160374;27;20468;-58
2023/05/30 02:46:53;;;;;;;6.30;2.88;;;;;;;15.06;100.00;98706.31;5162672;27;20081;-54
2023/05/30 02:49:19;;;;;;;6.40;3.00;;;;;;;15.32;100.00;98731.75;5161986;27;20047;-52
2023/05/30 02:51:45;;;;;;;9.77;2.88;;;;;;;15.62;100.00;98742.13;5160437;27;20047;-53
2023/05/30 02:54:11;;;;;;;11.77;3.40;;;;;;;15.67;100.00;98749.25;5160439;27;20047;-52
2023/05/30 02:56:37;;;;;;;5.63;2.88;;;;;;;15.87;100.00;98758.50;5160387;27;20055;-51
2023/05/30 02:59:04;;;;;;;7.03;3.08;;;;;;;16.08;100.00;98770.53;5160311;27;20141;-50
2023/05/30 03:01:30;;;;;;;4.32;3.05;;;;;;;16.30;100.00;98784.94;5159947;27;20443;-53
2023/05/30 03:03:55;;;;;;;15.60;3.85;;;;;;;16.61;100.00;98794.03;5159877;27;20042;-53
2023/05/30 03:06:21;;;;;;;3.42;2.92;;;;;;;16.68;100.00;98802.25;5160394;27;20051;-54
2023/05/30 03:08:56;;;;;;;8.57;2.72;;;;;;;16.85;100.00;98795.72;5160181;27;20086;-52
2023/05/30 03:11:22;;;;;;;5.05;2.72;;;;;;;17.10;100.00;98814.00;5160461;27;20042;-54
2023/05/30 03:13:50;;;;;;;8.63;2.75;;;;;;;17.46;100.00;98825.34;5160140;27;20057;-54
2023/05/30 03:16:16;;;;;;;5.93;2.95;;;;;;;17.55;100.00;98827.56;5160191;27;20047;-58
2023/05/30 03:18:42;;;;;;;12.40;3.22;;;;;;;17.83;100.00;98827.16;5159897;27;20112;-54
2023/05/30 03:21:08;;;;;;;11.85;3.10;;;;;;;18.00;100.00;98824.47;5160273;27;20059;-51
2023/05/30 03:23:34;;;;;;;8.07;4.00;;;;;;;18.11;100.00;98850.03;5160013;27;20459;-53
2023/05/30 03:26:03;;;;;;;11.75;2.70;;;;;;;18.22;100.00;98850.63;5159958;27;20047;-50
2023/05/30 03:28:29;;;;;;;4.25;2.40;;;;;;;18.49;100.00;98849.72;5160001;27;20107;-53
2023/05/30 03:30:56;;;;;;;8.77;2.85;;;;;;;18.67;100.00;98852.19;5159807;27;20058;-52
2023/05/30 03:33:22;;;;;;;15.18;2.92;;;;;;;18.83;100.00;98857.81;5160085;27;20138;-52
2023/05/30 03:35:48;;;;;;;13.13;3.10;;;;;;;19.06;100.00;98854.19;5159711;27;20046;-55
2023/05/30 03:38:14;;;;;;;10.63;2.90;;;;;;;19.18;100.00;98870.16;5159999;27;20387;-51
2023/05/30 03:40:40;;;;;;;7.55;2.83;;;;;;;19.56;100.00;98855.84;5159453;27;20051;-57
2023/05/30 03:43:07;;;;;;;5.25;2.95;;;;;;;19.68;100.00;98862.72;5159715;27;20130;-58
2023/05/30 03:45:33;;;;;;;8.55;3.35;;;;;;;19.94;100.00;98858.91;5159728;27;20114;-59
2023/05/30 03:47:59;;;;;;;4.57;3.00;;;;;;;20.27;100.00;98866.44;5159562;27;20133;-58
2023/05/30 03:50:25;;;;;;;9.38;2.92;;;;;;;20.55;100.00;98867.69;5159712;27;20051;-54
2023/05/30 03:52:51;;;;;;;8.10;3.15;;;;;;;20.64;100.00;98870.63;5159511;27;20078;-54
2023/05/30 03:55:17;;;;;;;11.55;3.10;;;;;;;20.89;100.00;98873.50;5158356;27;20415;-52
2023/05/30 03:57:43;;;;;;;5.80;3.50;;;;;;;20.71;100.00;98872.44;5159070;27;20412;-58
2023/05/30 04:00:12;;;;;;;10.43;3.42;;;;;;;21.15;100.00;98870.75;5159576;27;20053;-58
2023/05/30 04:02:38;;;;;;;10.95;3.25;;;;;;;21.44;100.00;98873.50;5159144;27;20558;-59
2023/05/30 04:05:05;;;;;;;9.57;4.10;;;;;;;21.63;100.00;98868.16;5159596;27;20055;-55
2023/05/30 04:07:33;;;;;;;8.05;3.20;;;;;;;21.75;100.00;98872.91;5159035;27;20046;-58
2023/05/30 04:09:59;;;;;;;8.32;3.83;;;;;;;22.19;97.72;98875.88;5159479;27;20047;-60
2023/05/30 04:12:25;;;;;;;11.55;4.88;;;;;;;22.46;94.55;98887.31;5159328;27;20087;-57
2023/05/30 04:14:51;;;;;;;14.60;5.80;;;;;;;22.70;94.35;98887.66;5159095;27;20086;-56
2023/05/30 04:17:18;;;;;;;14.18;5.22;;;;;;;22.71;93.60;98891.25;5159149;27;20081;-56
2023/05/30 04:19:43;;;;;;;17.05;7.00;;;;;;;23.12;94.14;98881.75;5159082;27;20057;-58
2023/05/30 04:22:09;;;;;;;10.52;5.05;;;;;;;23.06;93.40;98885.59;5159214;27;20046;-56
2023/05/30 04:24:35;;;;;;;12.70;6.95;;;;;;;23.63;90.51;98900.97;5158854;27;20060;-54
2023/05/30 04:27:02;;;;;;;10.15;4.00;;;;;;;23.84;84.09;98902.16;5158968;27;20107;-51
2023/05/30 04:29:28;;;;;;;9.18;3.53;;;;;;;23.79;82.71;98904.78;5158743;27;20050;-55
2023/05/30 04:31:54;;;;;;;12.65;6.18;;;;;;;24.27;83.55;98914.41;5159319;27;20166;-54
2023/05/30 04:34:22;;;;;;;9.95;4.88;;;;;;;24.31;77.07;98914.25;5158669;27;20128;-51
2023/05/30 04:36:48;;;;;;;11.80;5.57;;;;;;;24.72;72.73;98926.91;5159035;27;20058;-55
2023/05/30 04:39:14;;;;;;;16.05;5.40;;;;;;;24.99;69.75;98934.56;5158573;27;20099;-53
2023/05/30 04:41:40;;;;;;;13.80;6.20;;;;;;;25.15;71.23;98925.03;5158784;27;20137;-54
2023/05/30 04:44:07;;;;;;;10.65;5.78;;;;;;;25.43;67.53;98934.19;5158680;27;20327;-54
2023/05/30 04:46:33;;;;;;;12.25;6.70;;;;;;;25.54;69.26;98920.44;5158695;27;20051;-52
2023/05/30 04:49:00;;;;;;;9.98;5.22;;;;;;;26.02;63.96;98934.63;5158738;27;20079;-51
2023/05/30 04:51:27;;;;;;;11.00;4.35;;;;;;;26.15;62.99;98940.00;5158461;27;20052;-52
2023/05/30 04:53:54;;;;;;;10.38;4.30;;;;;;;26.47;62.68;98938.41;5158645;27;20150;-55
2023/05/30 04:56:20;;;;;;;11.65;4.97;;;;;;;26.51;60.52;98944.63;5158290;27;20050;-57
2023/05/30 04:58:48;;;;;;;8.95;4.65;;;;;;;26.54;60.75;98947.75;5158574;27;20050;-58
2023/05/30 05:01:14;;;;;;;11.60;4.05;;;;;;;26.96;59.67;98941.97;5158248;27;20046;-54
2023/05/30 05:03:40;;;;;;;12.43;4.55;;;;;;;27.06;59.74;98946.25;5158626;27;20555;-56
2023/05/30 05:06:07;;;;;;;12.45;4.07;;;;;;;27.49;60.14;98941.16;5157787;27;20074;-58
2023/05/30 05:08:34;;;;;;;13.68;4.35;;;;;;;27.54;58.57;98945.31;5157614;27;20415;-55
2023/05/30 05:11:00;;;;;;;12.02;4.38;;;;;;;27.92;58.26;98952.84;5157972;27;20053;-52
2023/05/30 05:13:26;;;;;;;13.80;4.20;;;;;;;27.87;56.50;98950.72;5158023;27;20054;-60
2023/05/30 05:15:52;;;;;;;13.95;4.05;;;;;;;28.19;56.03;98953.75;5158088;27;20124;-57
2023/05/30 05:18:19;;;;;;;7.40;3.83;;;;;;;28.07;55.22;98958.47;5157842;27;20083;-60
2023/05/30 05:20:44;;;;;;;13.13;4.00;;;;;;;28.37;56.30;98948.63;5157978;27;20511;-56
2023/05/30 05:23:10;;;;;;;15.20;3.92;;;;;;;28.79;53.86;98952.25;5158321;27;20047;-54
2023/05/30 05:25:37;;;;;;;7.78;3.60;;;;;;;28.92;52.49;98961.13;5158087;27;20186;-54
2023/05/30 05:28:03;;;;;;;7.43;3.10;;;;;;;28.32;52.12;98952.16;5158884;27;20141;-56
2023/05/30 05:30:29;;;;;;;12.80;3.33;;;;;;;28.83;51.79;98953.59;5159886;27;20142;-54
2023/05/30 05:32:55;;;;;;;14.07;3.47;;;;;;;28.45;52.00;98954.66;5158058;27;20054;-64
2023/05/30 05:35:21;;;;;;;11.48;3.30;;;;;;;28.61;51.52;98954.09;5158804;27;20404;-63
2023/05/30 05:37:48;;;;;;;12.98;3.45;;;;;;;28.89;51.52;98959.31;5157621;27;20491;-68
2023/05/30 05:40:14;;;;;;;15.15;3.60;;;;;;;29.18;51.19;98954.75;5157926;27;20133;-53
2023/05/30 05:42:42;;;;;;;14.25;3.75;;;;;;;29.35;51.65;98952.88;5157803;27;20051;-61
2023/05/30 05:45:09;;;;;;;12.77;3.35;;;;;;;29.15;51.74;98947.28;5157519;27;20065;-55
2023/05/30 05:47:35;;;;;;;11.15;3.33;;;;;;;29.15;51.45;98950.88;5157457;27;20090;-57
2023/05/30 05:50:01;;;;;;;14.15;3.90;;;;;;;29.39;52.15;98955.47;5157486;27;20065;-61
2023/05/30 05:52:27;;;;;;;16.00;3.45;;;;;;;29.77;51.71;98949.41;5157746;27;20162;-62
2023/05/30 05:54:53;;;;;;;12.52;3.65;;;;;;;29.75;51.50;98954.00;5157471;27;20199;-58
2023/05/30 05:57:18;;;;;;;10.23;3.50;;;;;;;29.69;51.70;98959.63;5157573;27;20392;-57
2023/05/30 05:59:45;;;;;;;13.00;3.90;;;;;;;30.33;51.29;98953.91;5157367;27;20047;-58
2023/05/30 06:02:11;;;;;;;13.93;3.80;;;;;;;30.21;51.58;98964.38;5158244;27;20057;-58
2023/05/30 06:04:38;;;;;;;11.65;3.85;;;;;;;30.05;51.82;98959.34;5157904;27;20050;-69
2023/05/30 06:07:04;;;;;;;12.13;3.47;;;;;;;29.91;51.36;98961.06;5157920;27;20146;-55
2023/05/30 06:09:31;;;;;;;10.02;4.32;;;;;;;30.11;51.66;98966.59;5157687;27;20138;-55
2023/05/30 06:11:57;;;;;;;15.82;3.78;;;;;;;30.14;51.25;98962.75;5157657;27;20199;-63
2023/05/30 06:14:23;;;;;;;9.70;3.08;;;;;;;30.18;51.65;98962.53;5157475;27;20082;-71
2023/05/30 06:16:50;;;;;;;11.07;3.25;;;;;;;29.75;51.87;98954.00;5157281;27;20130;-60
2023/05/30 06:19:16;;;;;;;12.15;3.72;;;;;;;30.05;51.38;98953.72;5159044;27;20076;-69
2023/05/30 06:21:41;;;;;;;19.48;3.85;;;;;;;30.14;51.56;98962.00;5160481;27;20423;-61
2023/05/30 06:24:07;;;;;;;10.77;3.25;;;;;;;30.23;51.14;98956.94;5163353;27;20093;-57
2023/05/30 06:26:33;;;;;;;4.38;2.30;;;;;;;30.48;49.88;98962.97;5166024;27;20043;-54
2023/05/30 06:28:59;;;;;;;5.18;2.40;;;;;;;30.37;48.11;98960.09;5162700;27;20107;-60
2023/05/30 06:31:25;;;;;;;6.82;2.50;;;;;;;30.58;47.07;98943.75;5159895;27;20404;-65
2023/05/30 06:33:52;;;;;;;9.52;2.92;;;;;;;30.80;46.58;98957.25;5160628;27;20336;-57
2023/05/30 06:36:18;;;;;;;7.15;2.63;;;;;;;31.01;47.20;98957.81;5160085;27;20423;-67
2023/05/30 06:38:44;;;;;;;8.20;2.60;;;;;;;31.24;47.56;98955.81;5160287;27;20419;-65
2023/05/30 06:41:10;;;;;;;5.60;2.53;;;;;;;31.08;46.56;98954.47;5160306;27;20058;-61
2023/05/30 06:43:36;;;;;;;5.53;2.80;;;;;;;30.82;45.64;98957.47;5160535;27;20047;-66
2023/05/30 06:46:02;;;;;;;7.68;2.55;;;;;;;30.41;44.62;98947.25;5160316;27;20145;-58
2023/05/30 06:48:28;;;;;;;6.32;2.33;;;;;;;30.69;45.55;98957.91;5160157;27;20066;-57
2023/05/30 06:50:55;;;;;;;6.55;2.65;;;;;;;31.08;45.46;98952.41;5160288;27;20047;-58
2023/05/30 06:53:21;;;;;;;9.15;2.67;;;;;;;31.47;45.04;98956.63;5160210;27;20046;-53
2023/05/30 06:55:47;;;;;;;10.10;3.05;;;;;;;31.70;43.23;98961.03;5160386;27;20085;-59
2023/05/30 06:58:13;;;;;;;6.45;2.63;;;;;;;32.09;43.81;98958.19;5159919;27;20054;-60
2023/05/30 07:00:39;;;;;;;6.90;2.40;;;;;;;31.81;44.30;98960.22;5160349;27;20075;-63
2023/05/30 07:03:05;;;;;;;3.10;2.25;;;;;;;30.91;44.13;98945.94;5159869;27;20054;-58
2023/05/30 07:05:31;;;;;;;22.85;3.70;;;;;;;30.69;46.45;98953.06;5159865;27;20313;-56
2023/05/30 07:07:57;;;;;;;11.38;2.88;;;;;;;31.08;45.56;98945.97;5159615;27;20112;-60
2023/05/30 07:10:23;;;;;;;16.25;3.17;;;;;;;31.72;45.29;98960.50;5159962;27;20086;-60
2023/05/30 07:12:49;;;;;;;6.38;2.72;;;;;;;31.82;45.49;98954.06;5159868;27;20077;-61
2023/05/30 07:15:15;;;;;;;6.35;2.72;;;;;;;32.17;45.66;98954.81;5159518;27;20430;-62
2023/05/30 07:17:41;;;;;;;12.18;3.00;;;;;;;32.13;45.16;98952.25;5159736;27;20056;-60
2023/05/30 07:20:08;;;;;;;10.95;3.10;;;;;;;30.50;46.50;98946.28;5159457;27;20051;-58
2023/05/30 07:22:34;;;;;;;6.72;2.78;;;;;;;30.05;45.56;98946.00;5159820;27;20042;-63
2023/05/30 07:25:01;;;;;;;6.35;2.60;;;;;;;29.63;46.51;98949.56;5159321;27;20046;-55
2023/05/30 07:27:27;;;;;;;5.97;2.45;;;;;;;29.87;46.82;98950.00;5159740;27;20073;-56
2023/05/30 07:29:53;;;;;;;12.88;3.05;;;;;;;30.75;46.48;98953.06;5159081;27;20490;-55
2023/05/30 07:32:18;;;;;;;9.65;2.40;;;;;;;30.22;47.18;98948.94;5159736;27;20137;-56
2023/05/30 07:34:44;;;;;;;6.68;2.92;;;;;;;29.54;48.56;98942.00;5159001;27;20128;-52
2023/05/30 07:37:10;;;;;;;9.35;2.90;;;;;;;29.01;49.80;98944.06;5159423;27;20054;-59
2023/05/30 07:39:36;;;;;;;6.18;3.80;;;;;;;27.96;51.53;98950.63;5159486;27;20388;-61
2023/05/30 07:42:03;;;;;;;8.68;2.90;;;;;;;28.05;51.54;98947.66;5159164;27;20423;-59
2023/05/30 07:44:29;;;;;;;8.07;2.83;;;;;;;27.48;52.92;98947.25;5159237;27;20134;-57
2023/05/30 07:46:56;;;;;;;7.07;2.90;;;;;;;26.55;52.87;98950.06;5159172;27;20137;-55
2023/05/30 07:49:22;;;;;;;10.68;2.72;;;;;;;26.59;53.73;98944.25;5159471;27;20066;-60
2023/05/30 07:51:48;;;;;;;7.68;2.85;;;;;;;26.49;54.88;98946.34;5159033;27;20050;-58
2023/05/30 07:54:15;;;;;;;7.07;3.05;;;;;;;26.23;55.86;98944.03;5159452;27;20137;-52
2023/05/30 07:56:40;;;;;;;8.88;3.33;;;;;;;25.75;55.64;98943.91;5158928;27;20103;-61
2023/05/30 07:59:07;;;;;;;6.95;3.10;;;;;;;25.81;55.87;98944.06;5159367;27;20054;-61
2023/05/30 08:01:33;;;;;;;7.93;3.10;;;;;;;26.48;54.99;98942.00;5158893;27;20050;-61
2023/05/30 08:03:59;;;;;;;9.82;3.10;;;;;;;25.81;57.43;98942.03;5161209;27;20061;-59
2023/05/30 08:06:25;;;;;;;8.05;2.88;;;;;;;25.67;58.26;98944.72;5159526;27;20404;-54
2023/05/30 08:08:51;;;;;;;9.32;3.10;;;;;;;25.67;59.73;98945.50;5158525;27;20050;-58
2023/05/30 08:11:17;;;;;;;11.93;3.45;;;;;;;25.63;60.59;98946.94;5158744;27;20046;-59
2023/05/30 08:13:43;;;;;;;12.93;3.45;;;;;;;25.52;60.57;98942.56;5158650;27;20047;-62
2023/05/30 08:16:10;;;;;;;9.95;3.35;;;;;;;25.30;59.90;98948.41;5158789;27;20483;-61
2023/05/30 08:18:37;;;;;;;12.05;3.63;;;;;;;26.21;58.98;98957.75;5158715;27;20051;-62
2023/05/30 08:21:03;;;;;;;15.80;3.53;;;;;;;27.84;55.49;98960.16;5158788;27;20203;-60
2023/05/30 08:23:29;;;;;;;8.70;3.00;;;;;;;28.27;52.97;98949.25;5158451;27;20050;-55
2023/05/30 08:25:55;;;;;;;10.10;3.17;;;;;;;28.97;52.49;98954.78;5158742;27;20191;-56
2023/05/30 08:28:21;;;;;;;15.98;3.28;;;;;;;29.98;51.05;98952.13;5158272;27;20065;-52
2023/05/30 08:30:50;;;;;;;15.82;2.70;;;;;;;30.07;50.88;98954.00;5158611;27;20050;-55
2023/05/30 08:33:17;;;;;;;7.07;3.08;;;;;;;30.10;49.59;98952.97;5158131;27;20101;-56
2023/05/30 08:35:43;;;;;;;9.02;3.08;;;;;;;30.32;48.94;98952.34;5158331;27;20106;-53
2023/05/30 08:38:10;;;;;;;12.07;3.22;;;;;;;30.43;48.35;98950.38;5158427;27;20053;-53
2023/05/30 08:40:41;;;;;;;7.63;2.97;;;;;;;31.01;47.19;98955.75;5158580;27;20335;-57
2023/05/30 08:43:07;;;;;;;8.43;2.90;;;;;;;31.74;46.48;98957.91;5157689;27;20062;-60
2023/05/30 08:45:33;;;;;;;8.93;3.00;;;;;;;32.06;46.70;98952.78;5158153;27;20061;-62
2023/05/30 08:47:59;;;;;;;8.20;3.05;;;;;;;30.77;47.80;98944.88;5158644;27;20184;-54
2023/05/30 08:50:28;;;;;;;10.63;2.70;;;;;;;29.89;47.67;98947.44;5158114;27;20047;-54
2023/05/30 08:53:02;;;;;;;12.05;2.97;;;;;;;30.44;45.76;98956.78;5158414;27;20137;-56
2023/05/30 08:55:31;;;;;;;7.72;2.92;;;;;;;28.99;46.62;98949.41;5158045;27;20088;-52
2023/05/30 08:58:04;;;;;;;5.28;2.45;;;;;;;28.17;48.14;98953.47;5158454;27;20054;-57
2023/05/30 09:00:31;;;;;;;7.10;2.40;;;;;;;27.40;48.71;98952.50;5158255;27;20195;-60
2023/05/30 09:02:59;;;;;;;5.20;2.60;;;;;;;27.77;48.36;98946.47;5158140;27;20054;-54
2023/05/30 09:05:26;;;;;;;9.30;2.50;;;;;;;28.52;47.52;98934.50;5158085;27;20046;-56
2023/05/30 09:07:52;;;;;;;9.27;2.70;;;;;;;28.21;47.29;98937.13;5157783;27;20495;-60
2023/05/30 09:10:19;;;;;;;5.28;2.38;;;;;;;28.78;47.14;98928.91;5157846;27;20054;-60
2023/05/30 09:12:45;;;;;;;6.85;2.40;;;;;;;30.36;46.01;98931.06;5157456;27;20069;-62
2023/05/30 09:15:11;;;;;;;6.38;2.47;;;;;;;31.11;44.96;98939.31;5157895;27;20042;-54
2023/05/30 09:17:37;;;;;;;6.88;2.25;;;;;;;31.43;44.73;98942.72;5157680;27;20050;-57
2023/05/30 09:20:05;;;;;;;8.45;2.42;;;;;;;32.10;44.24;98939.09;5158067;27;20142;-62
2023/05/30 09:22:32;;;;;;;7.53;2.47;;;;;;;31.28;44.72;98933.66;5157571;27;20074;-60
2023/05/30 09:25:00;;;;;;;5.95;2.60;;;;;;;30.24;47.55;98926.63;5158065;27;20137;-58
2023/05/30 09:27:27;;;;;;;5.97;2.47;;;;;;;31.00;48.19;98923.06;5157730;27;20046;-61
2023/05/30 09:29:53;;;;;;;8.75;2.88;;;;;;;30.41;49.46;98924.63;5157725;27;20439;-60
2023/05/30 09:32:20;;;;;;;7.00;2.58;;;;;;;30.01;50.15;98922.84;5157704;27;20149;-60
2023/05/30 09:34:53;;;;;;;11.07;2.63;;;;;;;28.89;51.15;98928.28;5157296;27;20141;-54
2023/05/30 09:37:19;;;;;;;8.15;2.97;;;;;;;27.50;53.07;98939.88;5157683;27;20429;-51
2023/05/30 09:40:03;;;;;;;5.90;2.65;;;;;;;26.62;53.88;98938.47;5157480;27;20047;-58
2023/05/30 09:42:37;;;;;;;;;;;;;;;25.80;56.84;98934.88;5158212;27;20062;-54
2023/05/30 09:45:06;;;;;;;11.00;2.58;;;;;;;25.85;56.43;98938.28;5157375;27;19968;-54
2023/05/30 09:47:37;;;;;;;6.30;3.08;;;;;;;26.74;56.97;98936.66;5158565;27;20078;-52
2023/05/30 09:50:05;;;;;;;8.57;2.75;;;;;;;28.04;54.20;98937.66;5157365;27;20069;-56
2023/05/30 09:52:31;;;;;;;7.32;2.45;;;;;;;27.88;53.42;98941.00;5157389;27;20065;-61
2023/05/30 09:54:58;;;;;;;8.43;2.53;;;;;;;27.97;52.69;98926.81;5161197;27;20051;-62
2023/05/30 09:57:25;;;;;;;12.80;3.00;;;;;;;28.29;52.31;98933.41;5160689;27;20129;-54
2023/05/30 09:59:51;;;;;;;6.78;2.85;;;;;;;29.51;50.60;98935.28;5160884;27;20392;-56
2023/05/30 10:02:21;;;;;;;5.32;2.53;;;;;;;29.70;49.02;98940.63;5161406;27;20046;-57
2023/05/30 10:04:47;;;;;;;7.15;2.20;;;;;;;29.01;47.70;98926.38;5161451;27;20154;-54
2023/05/30 10:07:14;;;;;;;5.25;2.40;;;;;;;28.83;49.01;98931.03;5160945;27;20110;-55
2023/05/30 10:09:41;;;;;;;9.18;2.25;;;;;;;28.84;49.46;98926.94;5161020;27;20417;-62
2023/05/30 10:12:08;;;;;;;6.28;2.75;;;;;;;28.31;51.04;98928.03;5160682;27;20046;-52
2023/05/30 10:14:34;;;;;;;9.52;3.15;;;;;;;28.47;50.22;98925.97;5161012;27;20051;-55
2023/05/30 10:17:04;;;;;;;5.68;2.55;;;;;;;28.54;49.90;98929.13;5161424;27;20057;-57
2023/05/30 10:19:35;;;;;;;7.18;2.50;;;;;;;28.60;49.74;98921.53;5160530;27;20395;-57
2023/05/30 10:22:05;;;;;;;8.52;2.75;;;;;;;29.03;49.82;98916.13;5160723;27;20400;-59
2023/05/30 10:24:31;;;;;;;9.35;2.90;;;;;;;29.75;49.01;98920.88;5160656;27;20051;-54
2023/05/30 10:27:03;;;;;;;8.10;2.60;;;;;;;28.17;50.50;98911.22;5160452;27;20137;-65
2023/05/30 10:29:36;;;;;;;7.43;2.50;;;;;;;28.50;50.74;98905.25;5160219;27;20059;-58
2023/05/30 10:32:06;;;;;;;4.50;2.47;;;;;;;27.86;51.22;98913.34;5160374;27;20403;-57
2023/05/30 10:34:39;;;;;;;8.48;2.30;;;;;;;27.26;52.22;98917.47;5160233;27;20055;-57
2023/05/30 10:37:06;;;;;;;5.70;2.40;;;;;;;26.64;52.43;98921.13;5161237;27;20051;-54
2023/05/30 10:39:39;;;;;;;8.48;2.70;;;;;;;26.49;52.83;98916.25;5162270;27;20195;-59
2023/05/30 10:42:10;;;;;;;7.43;2.70;;;;;;;26.18;54.02;98908.13;5159872;27;20046;-54
2023/05/30 10:44:48;;;;;;;6.05;3.22;;;;;;;26.42;52.87;98913.75;5160182;27;20068;-59
2023/05/30 10:47:29;;;;;;;7.28;2.63;;;;;;;26.64;52.92;98915.50;5159941;27;20061;-53
2023/05/30 10:50:00;;;;;;;8.13;2.63;;;;;;;27.17;51.97;98914.75;5160351;27;20057;-61
2023/05/30 10:52:33;;;;;;;5.95;3.00;;;;;;;27.20;52.46;98922.97;5159867;27;20146;-55
2023/05/30 10:55:00;;;;;;;11.02;3.25;;;;;;;26.90;52.84;98912.94;5160275;27;20061;-63
2023/05/30 10:57:31;;;;;;;8.82;3.08;;;;;;;26.67;53.00;98920.94;5159942;27;20074;-62
2023/05/30 11:00:06;;;;;;;7.03;2.85;;;;;;;26.61;52.86;98924.91;5160146;27;20058;-61
2023/05/30 11:02:35;;;;;;;6.25;2.80;;;;;;;26.23;52.33;98915.91;5160368;27;20057;-63
2023/05/30 11:05:05;;;;;;;7.03;3.20;;;;;;;26.60;50.27;98912.09;5159351;27;20050;-60
2023/05/30 11:07:33;;;;;;;9.45;2.80;;;;;;;27.08;50.00;98920.41;5159873;27;20122;-56
2023/05/30 11:10:04;;;;;;;24.10;3.38;;;;;;;26.39;52.75;98916.75;5159784;27;20090;-58
2023/05/30 11:12:30;;;;;;;5.78;3.03;;;;;;;26.09;54.67;98916.63;5159974;27;20089;-59
2023/05/30 11:14:58;;;;;;;12.55;3.30;;;;;;;25.69;55.77;98923.34;5159498;27;20047;-57
2023/05/30 11:17:33;;;;;;;14.68;3.03;;;;;;;25.91;54.72;98922.34;5160021;27;20167;-58
2023/05/30 11:20:12;;;;;;;7.63;3.22;;;;;;;25.58;55.01;98918.22;5159545;27;20114;-50
2023/05/30 11:22:38;;;;;;;7.35;3.10;;;;;;;25.78;54.75;98926.09;5159427;27;20073;-57
2023/05/30 11:25:18;;;;;;;7.10;3.40;;;;;;;25.52;56.06;98916.53;5159564;27;20133;-56
2023/05/30 11:28:15;;;;;;;12.50;3.70;;;;;;;25.25;57.42;98920.19;5159948;27;20134;-61
2023/05/30 11:30:46;;;;;;;9.13;3.20;;;;;;;24.63;61.08;98901.72;5159700;27;20152;-58